createdAt,value
2018-07-04T00:03:55.600Z,57.70
2018-07-04T00:06:39.744Z,57.80
2018-07-04T00:09:24.885Z,57.80
2018-07-04T00:12:07.525Z,57.70
2018-07-04T00:14:50.695Z,57.50
2018-07-04T00:17:33.093Z,57.30
2018-07-04T00:20:15.488Z,57.30
2018-07-04T00:22:58.994Z,57.30
2018-07-04T00:25:41.632Z,57.40
2018-07-04T00:28:24.512Z,57.40
2018-07-04T00:31:06.971Z,57.50
2018-07-04T00:33:49.873Z,57.50
2018-07-04T00:36:32.349Z,57.50
2018-07-04T00:39:15.293Z,57.50
2018-07-04T00:41:57.846Z,57.50
2018-07-04T00:44:40.286Z,57.30
2018-07-04T00:47:23.797Z,57.90
2018-07-04T00:50:06.420Z,57.40
2018-07-04T00:55:25.745Z,57.30
2018-07-04T00:58:08.459Z,57.20
2018-07-04T01:00:51.099Z,57.10
2018-07-04T01:03:33.651Z,57.00
2018-07-04T01:06:16.336Z,56.90
2018-07-04T01:08:58.999Z,56.50
2018-07-04T01:11:42.555Z,56.60
2018-07-04T01:14:25.226Z,56.70
2018-07-04T01:19:45.477Z,56.60
2018-07-04T01:22:28.240Z,56.70
2018-07-04T01:27:47.806Z,57.40
2018-07-04T01:33:21.786Z,56.60
2018-07-04T01:36:04.961Z,56.70
2018-07-04T01:38:51.620Z,56.20
2018-07-04T01:41:34.361Z,55.60
2018-07-04T01:44:17.840Z,55.50
2018-07-04T01:47:00.384Z,55.50
2018-07-04T01:52:21.366Z,56.40
2018-07-04T01:55:04.357Z,56.50
2018-07-04T01:57:47.857Z,56.50
2018-07-04T02:00:32.067Z,56.50
2018-07-04T02:03:14.856Z,56.40
2018-07-04T02:05:57.369Z,56.30
2018-07-04T02:08:39.536Z,56.50
2018-07-04T02:11:21.821Z,56.20
2018-07-04T02:14:05.896Z,56.00
2018-07-04T02:16:48.556Z,56.20
2018-07-04T02:19:32.638Z,56.60
2018-07-04T02:22:24.469Z,56.60
2018-07-04T02:25:07.838Z,56.80
2018-07-04T02:27:50.515Z,56.80
2018-07-04T02:33:10.046Z,56.50
2018-07-04T02:35:53.034Z,56.50
2018-07-04T02:38:35.575Z,56.10
2018-07-04T02:41:18.713Z,56.20
2018-07-04T02:44:01.568Z,56.30
2018-07-04T02:46:45.892Z,55.80
2018-07-04T02:49:39.306Z,55.50
2018-07-04T02:52:22.261Z,55.10
2018-07-04T02:55:05.227Z,54.70
2018-07-04T02:57:47.911Z,54.30
2018-07-04T03:00:30.724Z,54.20
2018-07-04T03:05:51.188Z,54.00
2018-07-04T03:08:33.935Z,53.60
2018-07-04T03:11:16.375Z,53.10
2018-07-04T03:13:59.209Z,52.50
2018-07-04T03:16:42.631Z,52.40
2018-07-04T03:19:24.861Z,52.10
2018-07-04T03:22:08.897Z,51.70
2018-07-04T03:27:28.411Z,51.30
2018-07-04T03:30:10.884Z,51.20
2018-07-04T03:32:53.258Z,51.10
2018-07-04T03:35:35.598Z,51.10
2018-07-04T03:38:18.617Z,51.10
2018-07-04T03:41:00.861Z,50.60
2018-07-04T03:43:44.994Z,50.90
2018-07-04T03:46:27.708Z,50.60
2018-07-04T03:49:12.949Z,50.90
2018-07-04T03:51:55.409Z,50.90
2018-07-04T03:54:38.139Z,51.00
2018-07-04T03:57:21.149Z,50.80
2018-07-04T04:00:03.998Z,51.70
2018-07-04T04:02:46.594Z,51.20
2018-07-04T04:05:29.207Z,50.60
2018-07-04T04:08:11.902Z,50.50
2018-07-04T04:10:54.599Z,50.40
2018-07-04T04:13:37.333Z,50.10
2018-07-04T04:16:20.430Z,50.00
2018-07-04T04:19:04.908Z,50.00
2018-07-04T04:21:48.327Z,49.90
2018-07-04T04:24:32.047Z,49.50
2018-07-04T04:27:14.390Z,49.10
2018-07-04T04:29:57.338Z,49.50
2018-07-04T04:32:40.303Z,49.50
2018-07-04T04:37:59.899Z,49.80
2018-07-04T04:40:42.769Z,48.90
2018-07-04T04:43:25.037Z,48.60
2018-07-04T04:46:07.746Z,48.90
2018-07-04T04:48:50.572Z,49.00
2018-07-04T04:51:34.660Z,48.90
2018-07-04T04:54:17.095Z,48.90
2018-07-04T04:56:59.698Z,48.80
2018-07-04T04:59:42.343Z,49.00
2018-07-04T05:02:24.839Z,49.00
2018-07-04T05:05:07.553Z,48.60
2018-07-04T05:07:50.300Z,48.70
2018-07-04T05:10:32.838Z,48.60
2018-07-04T05:13:15.757Z,48.60
2018-07-04T05:15:58.460Z,48.70
2018-07-04T05:18:41.552Z,48.20
2018-07-04T05:21:29.285Z,48.30
2018-07-04T05:24:16.019Z,48.30
2018-07-04T05:26:58.537Z,48.00
2018-07-04T05:29:40.821Z,48.20
2018-07-04T05:32:23.297Z,48.20
2018-07-04T05:35:06.178Z,48.10
2018-07-04T05:37:49.236Z,48.00
2018-07-04T05:40:31.939Z,48.10
2018-07-04T05:43:14.581Z,47.90
2018-07-04T05:45:57.327Z,48.20
2018-07-04T05:48:40.240Z,48.20
2018-07-04T05:51:22.986Z,48.70
2018-07-04T05:54:05.605Z,47.80
2018-07-04T05:56:48.316Z,47.70
2018-07-04T05:59:30.629Z,47.50
2018-07-04T06:02:13.000Z,47.30
2018-07-04T06:04:55.175Z,47.60
2018-07-04T06:07:38.833Z,48.00
2018-07-04T06:10:22.257Z,48.20
2018-07-04T06:13:05.698Z,48.10
2018-07-04T06:18:26.534Z,47.70
2018-07-04T06:21:09.338Z,47.80
2018-07-04T06:23:53.384Z,47.50
2018-07-04T06:26:37.332Z,47.10
2018-07-04T06:29:19.584Z,47.10
2018-07-04T06:32:02.471Z,46.70
2018-07-04T06:34:45.105Z,46.50
2018-07-04T06:37:27.507Z,46.60
2018-07-04T06:39:58.013Z,46.70
2018-07-04T06:42:28.256Z,46.70
2018-07-04T06:44:58.897Z,46.70
2018-07-04T06:47:29.278Z,46.90
2018-07-04T06:49:59.723Z,47.30
2018-07-04T06:52:30.394Z,47.20
2018-07-04T06:55:02.153Z,46.70
2018-07-04T07:00:03.430Z,47.00
2018-07-04T07:02:33.781Z,46.90
2018-07-04T07:05:16.430Z,46.80
2018-07-04T07:07:58.606Z,46.60
2018-07-04T07:10:41.510Z,46.40
2018-07-04T07:13:23.967Z,46.60
2018-07-04T07:16:06.061Z,46.40
2018-07-04T07:18:49.014Z,46.60
2018-07-04T07:21:31.183Z,46.60
2018-07-04T07:26:52.210Z,46.20
2018-07-04T07:29:35.825Z,46.30
2018-07-04T07:32:18.450Z,46.30
2018-07-04T07:35:01.125Z,46.00
2018-07-04T07:40:19.742Z,45.30
2018-07-04T07:43:02.211Z,45.60
2018-07-04T07:45:45.276Z,45.50
2018-07-04T07:48:28.348Z,45.50
2018-07-04T07:51:11.077Z,45.80
2018-07-04T07:53:53.647Z,45.60
2018-07-04T07:59:13.715Z,44.90
2018-07-04T08:01:57.751Z,44.90
2018-07-04T08:04:40.399Z,44.80
2018-07-04T08:07:23.106Z,45.10
2018-07-04T08:10:05.502Z,45.20
2018-07-04T08:15:25.043Z,44.40
2018-07-04T08:18:12.658Z,44.40
2018-07-04T08:21:00.200Z,44.30
2018-07-04T08:23:42.597Z,44.50
2018-07-04T08:26:26.068Z,44.70
2018-07-04T08:31:45.159Z,45.00
2018-07-04T08:34:27.864Z,44.90
2018-07-04T08:39:47.449Z,45.00
2018-07-04T08:42:30.227Z,45.70
2018-07-04T08:45:12.993Z,45.90
2018-07-04T08:47:55.577Z,46.00
2018-07-04T08:50:38.189Z,45.80
2018-07-04T08:53:20.708Z,45.60
2018-07-04T08:56:02.878Z,45.50
2018-07-04T08:58:45.400Z,45.60
2018-07-04T09:01:28.738Z,45.70
2018-07-04T09:04:13.670Z,45.90
2018-07-04T09:06:56.630Z,46.00
2018-07-04T09:09:39.717Z,46.50
2018-07-04T09:12:22.429Z,46.60
2018-07-04T09:15:04.842Z,46.90
2018-07-04T09:17:47.375Z,47.30
2018-07-04T09:20:29.942Z,47.50
2018-07-04T09:23:13.664Z,47.80
2018-07-04T09:25:56.612Z,48.00
2018-07-04T09:28:39.285Z,48.00
2018-07-04T09:31:23.031Z,48.30
2018-07-04T09:34:06.218Z,48.80
2018-07-04T09:36:48.890Z,48.80
2018-07-04T09:39:32.785Z,49.30
2018-07-04T09:44:51.552Z,49.20
2018-07-04T09:50:13.427Z,49.00
2018-07-04T09:52:55.761Z,49.20
2018-07-04T09:55:38.632Z,49.00
2018-07-04T09:58:21.867Z,49.00
2018-07-04T10:01:09.446Z,49.20
2018-07-04T10:03:52.003Z,49.40
2018-07-04T10:06:34.441Z,49.30
2018-07-04T10:09:16.762Z,49.50
2018-07-04T10:11:58.924Z,49.50
2018-07-04T10:14:41.713Z,49.60
2018-07-04T10:17:24.574Z,49.40
2018-07-04T10:20:06.840Z,49.10
2018-07-04T10:22:49.362Z,49.10
2018-07-04T10:25:32.147Z,49.00
2018-07-04T10:28:14.580Z,49.20
2018-07-04T10:30:59.493Z,49.10
2018-07-04T10:33:41.911Z,49.20
2018-07-04T10:36:24.580Z,49.60
2018-07-04T10:39:08.090Z,49.60
2018-07-04T10:41:55.047Z,49.90
2018-07-04T10:44:38.832Z,50.20
2018-07-04T10:47:21.367Z,50.40
2018-07-04T10:50:04.048Z,51.10
2018-07-04T10:52:46.627Z,51.30
2018-07-04T10:55:29.032Z,51.40
2018-07-04T10:58:11.875Z,50.90
2018-07-04T11:03:31.465Z,50.70
2018-07-04T11:06:14.175Z,50.50
2018-07-04T11:08:56.564Z,50.50
2018-07-04T11:11:39.530Z,50.40
2018-07-04T11:14:21.944Z,50.20
2018-07-04T11:17:05.831Z,50.40
2018-07-04T11:19:49.074Z,50.20
2018-07-04T11:25:08.268Z,50.30
2018-07-04T11:27:50.869Z,50.30
2018-07-04T11:30:34.791Z,50.10
2018-07-04T11:33:19.468Z,50.40
2018-07-04T11:36:02.581Z,50.40
2018-07-04T11:38:45.161Z,50.30
2018-07-04T11:44:05.049Z,50.20
2018-07-04T11:46:35.697Z,50.10
2018-07-04T11:49:06.112Z,50.30
2018-07-04T11:54:07.755Z,50.00
2018-07-04T11:56:38.296Z,49.90
2018-07-04T11:59:08.678Z,50.00
2018-07-04T12:01:39.173Z,50.10
2018-07-04T12:04:27.419Z,50.10
2018-07-04T12:09:36.126Z,49.50
2018-07-04T12:12:06.728Z,50.30
2018-07-04T12:14:37.259Z,50.30
2018-07-04T12:17:08.977Z,50.40
2018-07-04T12:22:10.381Z,51.00
2018-07-04T12:24:40.791Z,51.40
2018-07-04T12:27:13.152Z,51.50
2018-07-04T12:29:46.560Z,51.70
2018-07-04T12:32:17.772Z,51.90
2018-07-04T12:34:49.094Z,52.00
2018-07-04T12:37:37.970Z,52.20
2018-07-04T12:40:09.853Z,52.30
2018-07-04T12:42:41.075Z,52.20
2018-07-04T12:47:44.459Z,52.20
2018-07-04T12:50:27.236Z,52.20
2018-07-04T12:52:57.890Z,52.30
2018-07-04T12:55:42.006Z,52.30
2018-07-04T12:58:25.142Z,52.20
2018-07-04T13:06:25.066Z,51.90
2018-07-04T13:09:08.818Z,51.70
2018-07-04T13:17:05.322Z,50.90
2018-07-04T13:19:47.646Z,50.70
2018-07-04T13:22:30.126Z,50.90
2018-07-04T13:25:12.637Z,50.90
2018-07-04T13:27:55.937Z,50.70
2018-07-04T13:36:00.515Z,50.60
2018-07-04T13:38:43.587Z,50.90
2018-07-04T13:41:27.277Z,51.30
2018-07-04T13:44:10.400Z,51.60
2018-07-04T13:46:54.660Z,51.30
2018-07-04T13:49:37.049Z,51.00
2018-07-04T13:54:56.277Z,51.20
2018-07-04T14:00:16.479Z,51.50
2018-07-04T14:05:36.506Z,51.80
2018-07-04T14:08:20.104Z,52.00
2018-07-04T14:11:02.884Z,52.00
2018-07-04T14:13:45.336Z,52.00
2018-07-04T14:16:28.563Z,52.80
2018-07-04T14:19:13.421Z,52.20
2018-07-04T14:21:56.931Z,52.20
2018-07-04T14:24:40.380Z,52.20
2018-07-04T14:27:23.210Z,52.20
2018-07-04T14:30:06.036Z,52.20
2018-07-04T14:32:48.836Z,52.30
2018-07-04T14:35:31.766Z,52.40
2018-07-04T14:38:15.575Z,52.50
2018-07-04T14:40:58.108Z,52.60
2018-07-04T14:43:41.734Z,52.60
2018-07-04T14:46:24.997Z,52.80
2018-07-04T14:49:07.569Z,52.80
2018-07-04T14:51:50.259Z,52.90
2018-07-04T14:54:36.491Z,53.20
2018-07-04T14:57:20.911Z,53.10
2018-07-04T15:00:06.935Z,53.20
2018-07-04T15:05:36.531Z,53.20
2018-07-04T15:08:19.036Z,53.20
2018-07-04T15:11:01.143Z,53.30
2018-07-04T15:13:43.748Z,53.30
2018-07-04T15:16:28.069Z,53.40
2018-07-04T15:19:11.123Z,53.40
2018-07-04T15:21:55.898Z,53.20
2018-07-04T15:24:38.629Z,53.30
2018-07-04T15:27:22.394Z,53.50
2018-07-04T15:30:04.809Z,53.50
2018-07-04T15:35:24.339Z,53.90
2018-07-04T15:38:07.118Z,53.90
2018-07-04T15:40:52.692Z,54.00
2018-07-04T15:43:36.132Z,54.20
2018-07-04T15:46:19.435Z,54.30
2018-07-04T15:51:39.154Z,54.70
2018-07-04T15:54:23.074Z,54.40
2018-07-04T15:57:06.902Z,54.40
2018-07-04T16:02:25.988Z,54.50
2018-07-04T16:05:08.573Z,54.50
2018-07-04T16:07:52.036Z,54.50
2018-07-04T16:10:34.975Z,54.50
2018-07-04T16:13:17.454Z,54.40
2018-07-04T16:16:01.347Z,54.60
2018-07-04T16:18:43.832Z,54.70
2018-07-04T16:21:26.694Z,54.70
2018-07-04T16:24:09.387Z,54.70
2018-07-04T16:29:30.240Z,55.00
2018-07-04T16:32:12.873Z,54.90
2018-07-04T16:34:56.501Z,55.10
2018-07-04T16:37:43.146Z,55.10
2018-07-04T16:40:25.689Z,55.20
2018-07-04T16:43:10.135Z,55.20
2018-07-04T16:45:53.082Z,56.00
2018-07-04T16:48:35.290Z,55.30
2018-07-04T16:51:17.894Z,55.40
2018-07-04T16:54:01.850Z,55.40
2018-07-04T16:56:44.636Z,55.70
2018-07-04T16:59:27.165Z,55.90
2018-07-04T17:02:09.798Z,56.00
2018-07-04T17:04:52.408Z,56.00
2018-07-04T17:10:12.694Z,56.20
2018-07-04T17:12:55.491Z,56.20
2018-07-04T17:15:38.067Z,56.00
2018-07-04T17:18:21.044Z,56.00
2018-07-04T17:21:03.942Z,56.40
2018-07-04T17:23:46.675Z,56.60
2018-07-04T17:26:29.510Z,56.70
2018-07-04T17:29:11.999Z,56.70
2018-07-04T17:31:54.788Z,56.60
2018-07-04T17:34:37.493Z,56.60
2018-07-04T17:37:19.993Z,56.60
2018-07-04T17:40:02.700Z,56.60
2018-07-04T17:42:45.482Z,56.80
2018-07-04T17:45:29.844Z,57.00
2018-07-04T17:48:12.581Z,56.90
2018-07-04T17:50:55.056Z,56.80
2018-07-04T17:53:37.657Z,56.80
2018-07-04T17:56:20.459Z,56.80
2018-07-04T17:59:03.098Z,56.90
2018-07-04T18:01:46.044Z,57.10
2018-07-04T18:04:29.089Z,57.20
2018-07-04T18:07:12.238Z,57.00
2018-07-04T18:09:54.587Z,57.00
2018-07-04T18:12:38.222Z,56.90
2018-07-04T18:15:20.978Z,56.90
2018-07-04T18:18:04.035Z,56.90
2018-07-04T18:20:46.829Z,56.90
2018-07-04T18:23:30.021Z,56.70
2018-07-04T18:26:12.640Z,56.60
2018-07-04T18:28:55.114Z,56.60
2018-07-04T18:31:37.192Z,56.70
2018-07-04T18:34:19.841Z,56.70
2018-07-04T18:37:02.804Z,56.70
2018-07-04T18:39:45.264Z,56.80
2018-07-04T18:42:27.868Z,56.90
2018-07-04T18:45:10.676Z,57.20
2018-07-04T18:47:54.431Z,57.20
2018-07-04T18:50:36.987Z,57.20
2018-07-04T18:53:19.609Z,57.20
2018-07-04T18:56:02.185Z,57.00
2018-07-04T18:58:45.024Z,56.90
2018-07-04T19:01:28.059Z,57.10
2018-07-04T19:04:10.399Z,57.10
2018-07-04T19:12:07.466Z,57.50
2018-07-04T19:14:52.640Z,57.30
2018-07-04T19:17:35.112Z,57.50
2018-07-04T19:20:18.584Z,57.60
2018-07-04T19:23:01.329Z,57.60
2018-07-04T19:25:44.792Z,57.40
2018-07-04T19:28:27.620Z,57.30
2018-07-04T19:33:47.285Z,57.60
2018-07-04T19:36:29.816Z,57.50
2018-07-04T19:39:12.123Z,57.40
2018-07-04T19:41:55.338Z,57.40
2018-07-04T19:44:37.731Z,57.50
2018-07-04T19:47:20.578Z,57.40
2018-07-04T19:50:04.320Z,57.30
2018-07-04T19:52:46.406Z,57.40
2018-07-04T19:55:28.770Z,57.40
2018-07-04T19:58:11.082Z,57.30
2018-07-04T20:00:53.780Z,57.30
2018-07-04T20:03:36.456Z,57.30
2018-07-04T20:06:18.617Z,57.20
2018-07-04T20:09:01.705Z,57.40
2018-07-04T20:16:57.845Z,57.80
2018-07-04T20:22:17.006Z,58.60
2018-07-04T20:24:59.712Z,58.60
2018-07-04T20:27:42.077Z,58.80
2018-07-04T20:30:25.066Z,58.90
2018-07-04T20:38:22.259Z,59.30
2018-07-04T20:41:05.432Z,59.50
2018-07-04T20:43:48.248Z,59.40
2018-07-04T20:46:30.583Z,59.50
2018-07-04T20:49:13.306Z,59.60
2018-07-04T20:51:57.700Z,59.70
2018-07-04T20:54:40.470Z,59.80
2018-07-04T20:57:23.058Z,59.90
2018-07-04T21:00:06.668Z,59.90
2018-07-04T21:02:49.198Z,60.00
2018-07-04T21:08:08.733Z,59.90
2018-07-04T21:10:51.109Z,59.80
2018-07-04T21:13:34.018Z,59.90
2018-07-04T21:16:17.463Z,59.90
2018-07-04T21:19:02.171Z,60.00
2018-07-04T21:24:21.000Z,59.80
2018-07-04T21:27:03.762Z,59.80
2018-07-04T21:32:23.176Z,60.00
2018-07-04T21:35:05.810Z,60.00
2018-07-04T21:37:48.509Z,59.80
2018-07-04T21:40:31.145Z,59.70
2018-07-04T21:43:13.209Z,59.60
2018-07-04T21:45:55.768Z,59.50
2018-07-04T21:48:38.264Z,59.50
2018-07-04T21:53:59.823Z,59.50
2018-07-04T21:56:43.082Z,59.50
2018-07-04T21:59:25.359Z,59.50
2018-07-04T22:02:08.303Z,59.60
2018-07-04T22:04:50.947Z,59.50
2018-07-04T22:07:33.607Z,59.50
2018-07-04T22:10:16.260Z,59.50
2018-07-04T22:12:59.143Z,59.40
2018-07-04T22:15:41.780Z,59.50
2018-07-04T22:18:24.361Z,59.30
2018-07-04T22:21:07.004Z,59.50
2018-07-04T22:23:49.764Z,59.70
2018-07-04T22:26:32.381Z,59.80
2018-07-04T22:29:14.947Z,60.00
2018-07-04T22:31:57.652Z,59.90
2018-07-04T22:37:17.525Z,59.90
2018-07-04T22:40:00.244Z,59.80
2018-07-04T22:42:42.866Z,60.60
2018-07-04T22:48:01.874Z,59.70
2018-07-04T22:50:44.544Z,59.80
2018-07-04T22:53:27.314Z,59.90
2018-07-04T22:56:11.742Z,60.00
2018-07-04T22:58:55.168Z,60.20
2018-07-04T23:01:39.348Z,60.20
2018-07-04T23:04:22.078Z,60.20
2018-07-04T23:07:04.744Z,60.10
2018-07-04T23:09:47.223Z,60.10
2018-07-04T23:12:29.859Z,60.30
2018-07-04T23:15:13.241Z,60.00
2018-07-04T23:17:55.913Z,59.90
2018-07-04T23:20:39.551Z,59.90
2018-07-04T23:23:22.474Z,59.90
2018-07-04T23:26:05.882Z,60.00
2018-07-04T23:28:48.382Z,60.00
2018-07-04T23:31:31.444Z,60.10
2018-07-04T23:34:13.617Z,60.20
2018-07-04T23:36:56.334Z,60.40
2018-07-04T23:42:17.282Z,60.50
2018-07-04T23:45:08.880Z,60.40
2018-07-04T23:47:51.111Z,60.20
2018-07-04T23:50:33.543Z,60.30
2018-07-04T23:53:16.331Z,60.20
2018-07-04T23:55:59.257Z,60.00
2018-07-04T23:58:42.544Z,60.10
